Time;durP1;ratioP1;P1;durP2;ratioP2;P2;SDS_P1;SDS_P2;PMS_P1;PMS_P2;Temp;Humidity;BMP_temperature;BMP_pressure;BME280_temperature;BME280_humidity;BME280_pressure;Samples;Min_cycle;Max_cycle;Signal;HPM_P1;HPM_P2
2023/05/04 00:01:47;;;;;;;0.40;0.40;;;4.40;99.90;;;;;;5031651;28;20246;-83
2023/05/04 00:04:12;;;;;;;0.30;0.30;;;4.50;99.90;;;;;;5032964;28;20201;-82
2023/05/04 00:06:38;;;;;;;0.30;0.30;;;4.40;99.90;;;;;;5050603;28;20278;-83
2023/05/04 00:09:05;;;;;;;0.30;0.30;;;4.60;99.90;;;;;;5044472;28;20943;-83
2023/05/04 00:11:31;;;;;;;0.30;0.30;;;4.80;99.90;;;;;;5038688;28;20583;-83
2023/05/04 00:13:56;;;;;;;0.30;0.30;;;4.70;99.90;;;;;;5040157;28;20535;-83
2023/05/04 00:16:22;;;;;;;0.30;0.30;;;4.60;99.90;;;;;;5052793;28;20187;-83
2023/05/04 00:18:47;;;;;;;0.30;0.30;;;4.40;99.90;;;;;;5050066;28;20278;-82
2023/05/04 00:21:13;;;;;;;0.40;0.40;;;4.40;99.90;;;;;;5033100;28;20671;-83
2023/05/04 00:23:38;;;;;;;0.30;0.30;;;4.50;99.90;;;;;;5046616;28;20198;-82
2023/05/04 00:26:04;;;;;;;0.30;0.30;;;4.50;99.90;;;;;;5032446;28;20244;-83
2023/05/04 00:28:29;;;;;;;0.40;0.40;;;4.30;99.90;;;;;;5047135;28;20675;-82
2023/05/04 00:30:55;;;;;;;0.30;0.30;;;4.20;99.90;;;;;;5039787;28;20187;-83
2023/05/04 00:33:21;;;;;;;0.40;0.40;;;4.10;99.90;;;;;;5048424;28;20270;-82
2023/05/04 00:35:46;;;;;;;0.40;0.40;;;4.10;99.90;;;;;;5042808;28;20450;-82
2023/05/04 00:38:12;;;;;;;0.40;0.40;;;4.00;99.90;;;;;;5039952;28;20187;-82
2023/05/04 00:40:39;;;;;;;0.40;0.40;;;4.10;99.90;;;;;;5032276;28;20191;-82
2023/05/04 00:43:04;;;;;;;0.30;0.30;;;4.20;99.90;;;;;;5055291;28;20218;-82
2023/05/04 00:45:30;;;;;;;0.30;0.30;;;4.10;99.90;;;;;;5042746;28;20464;-82
2023/05/04 00:47:56;;;;;;;0.30;0.30;;;4.20;99.90;;;;;;5044987;28;20189;-82
2023/05/04 00:50:22;;;;;;;0.30;0.30;;;4.10;99.90;;;;;;5043678;28;21974;-83
2023/05/04 00:52:48;;;;;;;0.40;0.40;;;4.20;99.90;;;;;;5049077;28;20225;-82
2023/05/04 00:55:14;;;;;;;0.37;0.37;;;4.30;99.90;;;;;;5046808;28;20583;-82
2023/05/04 00:57:40;;;;;;;0.40;0.40;;;4.20;99.90;;;;;;5040649;28;20440;-82
2023/05/04 01:00:07;;;;;;;0.40;0.40;;;4.00;99.90;;;;;;5043155;28;20444;-82
2023/05/04 01:02:33;;;;;;;0.40;0.40;;;4.10;99.90;;;;;;5051699;28;20873;-83
2023/05/04 01:04:59;;;;;;;0.40;0.40;;;4.00;99.90;;;;;;5038032;28;20450;-82
2023/05/04 01:07:47;;;;;;;0.40;0.40;;;4.20;99.90;;;;;;5045959;28;20193;-82
2023/05/04 01:10:19;;;;;;;0.40;0.40;;;4.20;99.90;;;;;;5041580;28;20485;-82
2023/05/04 01:12:56;;;;;;;0.40;0.40;;;4.00;99.90;;;;;;5044157;28;20438;-82
2023/05/04 01:15:22;;;;;;;0.40;0.40;;;3.90;99.90;;;;;;5051344;28;20450;-82
2023/05/04 01:17:48;;;;;;;0.40;0.40;;;3.80;99.90;;;;;;5051523;28;20437;-83
2023/05/04 01:20:13;;;;;;;0.30;0.30;;;3.80;99.90;;;;;;5035765;28;20450;-82
2023/05/04 01:22:39;;;;;;;0.40;0.40;;;3.60;99.90;;;;;;5045306;28;20187;-83
2023/05/04 01:25:06;;;;;;;0.40;0.40;;;3.60;99.90;;;;;;5048030;28;20191;-83
2023/05/04 01:27:53;;;;;;;0.40;0.40;;;3.50;99.90;;;;;;5046810;28;20473;-82
2023/05/04 01:30:42;;;;;;;0.40;0.40;;;3.50;99.90;;;;;;5035784;28;20476;-82
2023/05/04 01:33:08;;;;;;;0.40;0.40;;;3.40;99.90;;;;;;5044123;28;20429;-82
2023/05/04 01:35:34;;;;;;;0.40;0.40;;;3.50;99.90;;;;;;5048631;28;21006;-82
2023/05/04 01:38:00;;;;;;;0.50;0.50;;;3.50;99.90;;;;;;5044645;28;20433;-82
2023/05/04 01:40:26;;;;;;;0.40;0.40;;;3.40;99.90;;;;;;5033383;28;20885;-82
2023/05/04 01:42:51;;;;;;;0.40;0.40;;;3.30;99.90;;;;;;5048942;28;20559;-82
2023/05/04 01:45:17;;;;;;;0.40;0.40;;;3.20;99.90;;;;;;5034838;28;20183;-83
2023/05/04 01:47:43;;;;;;;0.40;0.40;;;3.10;99.90;;;;;;5031363;28;20191;-82
2023/05/04 01:50:08;;;;;;;0.40;0.40;;;3.10;99.90;;;;;;5056979;28;20682;-82
2023/05/04 01:52:34;;;;;;;0.40;0.40;;;3.10;99.90;;;;;;5045963;28;20183;-83
2023/05/04 01:54:59;;;;;;;0.50;0.50;;;3.00;99.90;;;;;;5032487;28;20219;-83
2023/05/04 01:57:25;;;;;;;0.40;0.40;;;3.20;99.90;;;;;;5047702;28;20237;-83
2023/05/04 01:59:50;;;;;;;0.30;0.30;;;3.10;99.90;;;;;;5045752;28;20179;-82
2023/05/04 02:02:16;;;;;;;0.40;0.40;;;3.10;99.90;;;;;;5056661;28;20554;-83
2023/05/04 02:04:42;;;;;;;0.40;0.40;;;3.00;99.90;;;;;;5034791;28;20213;-82
2023/05/04 02:07:07;;;;;;;0.40;0.40;;;3.10;99.90;;;;;;5033590;28;20196;-83
2023/05/04 02:09:34;;;;;;;0.30;0.30;;;3.00;99.90;;;;;;5040599;28;20222;-83
2023/05/04 02:11:59;;;;;;;0.30;0.30;;;2.90;99.90;;;;;;5045941;28;20871;-82
2023/05/04 02:14:25;;;;;;;0.30;0.30;;;3.00;99.90;;;;;;5027848;28;20446;-82
2023/05/04 02:16:50;;;;;;;0.30;0.30;;;2.90;99.90;;;;;;5033382;28;20553;-82
2023/05/04 02:19:16;;;;;;;0.30;0.30;;;2.90;99.90;;;;;;5050730;28;20269;-82
2023/05/04 02:21:42;;;;;;;0.40;0.40;;;2.80;99.90;;;;;;5037408;28;20278;-82
2023/05/04 02:24:07;;;;;;;0.40;0.40;;;2.80;99.90;;;;;;5034743;28;20892;-83
2023/05/04 02:26:34;;;;;;;0.40;0.40;;;2.90;99.90;;;;;;5047599;28;20205;-83
2023/05/04 02:29:02;;;;;;;0.30;0.30;;;2.90;99.90;;;;;;5034254;28;20698;-82
2023/05/04 02:31:28;;;;;;;0.30;0.30;;;2.80;99.90;;;;;;5038218;28;20441;-82
2023/05/04 02:33:53;;;;;;;0.40;0.40;;;2.80;99.90;;;;;;5050293;28;20966;-83
2023/05/04 02:36:19;;;;;;;0.30;0.30;;;2.80;99.90;;;;;;5038020;28;20534;-83
2023/05/04 02:38:45;;;;;;;0.40;0.40;;;2.90;99.90;;;;;;5031174;28;20183;-82
2023/05/04 02:41:10;;;;;;;0.30;0.30;;;2.90;99.90;;;;;;5037760;28;20254;-83
2023/05/04 02:43:36;;;;;;;0.30;0.30;;;2.70;99.90;;;;;;5040660;28;21107;-82
2023/05/04 02:46:03;;;;;;;0.30;0.30;;;2.80;99.90;;;;;;5036953;28;20194;-83
2023/05/04 02:48:29;;;;;;;0.33;0.33;;;2.80;99.90;;;;;;5032522;28;20219;-82
2023/05/04 02:50:55;;;;;;;0.40;0.40;;;3.00;99.90;;;;;;5034336;28;20581;-82
2023/05/04 02:53:21;;;;;;;0.40;0.40;;;3.00;99.90;;;;;;5040312;28;20537;-82
2023/05/04 02:55:46;;;;;;;0.30;0.30;;;2.90;99.90;;;;;;5033839;28;20193;-83
2023/05/04 02:58:12;;;;;;;0.40;0.40;;;2.90;99.90;;;;;;5042948;28;20452;-83
2023/05/04 03:00:37;;;;;;;0.30;0.30;;;2.80;99.90;;;;;;5036952;28;20702;-83
2023/05/04 03:03:03;;;;;;;0.33;0.33;;;2.80;99.90;;;;;;5030407;28;20191;-83
2023/05/04 03:05:31;;;;;;;0.30;0.30;;;2.80;99.90;;;;;;5041201;28;20839;-82
2023/05/04 03:07:57;;;;;;;0.40;0.40;;;2.80;99.90;;;;;;5048581;28;20730;-83
2023/05/04 03:10:22;;;;;;;0.30;0.30;;;2.70;99.90;;;;;;5035225;28;20490;-83
2023/05/04 03:12:48;;;;;;;0.30;0.30;;;2.70;99.90;;;;;;5036715;28;20549;-83
2023/05/04 03:15:13;;;;;;;0.40;0.40;;;2.70;99.90;;;;;;5033638;28;20183;-82
2023/05/04 03:17:39;;;;;;;0.30;0.30;;;2.50;99.90;;;;;;5041532;28;21977;-83
2023/05/04 03:20:05;;;;;;;0.40;0.40;;;2.60;99.90;;;;;;5047975;28;20214;-82
2023/05/04 03:22:31;;;;;;;0.40;0.40;;;2.60;99.90;;;;;;5037184;28;20198;-83
2023/05/04 03:24:56;;;;;;;0.40;0.40;;;2.50;99.90;;;;;;5038576;28;20438;-83
2023/05/04 03:27:22;;;;;;;0.40;0.40;;;2.60;99.90;;;;;;5046318;28;20190;-83
2023/05/04 03:29:48;;;;;;;0.30;0.30;;;2.60;99.90;;;;;;5029704;28;20226;-82
2023/05/04 03:32:13;;;;;;;0.40;0.40;;;2.40;99.90;;;;;;5032910;28;20659;-83
2023/05/04 03:34:39;;;;;;;0.40;0.40;;;2.40;99.90;;;;;;5037738;28;20260;-82
2023/05/04 03:37:04;;;;;;;0.30;0.30;;;2.50;99.90;;;;;;5040007;28;20192;-83
2023/05/04 03:39:30;;;;;;;0.40;0.40;;;2.50;99.90;;;;;;5036867;28;20192;-83
2023/05/04 03:41:56;;;;;;;0.40;0.40;;;2.50;99.90;;;;;;5046525;28;20226;-82
2023/05/04 03:44:21;;;;;;;0.40;0.40;;;2.40;99.90;;;;;;5031717;28;20825;-82
2023/05/04 03:46:47;;;;;;;0.40;0.40;;;2.50;99.90;;;;;;5043258;28;20549;-82
2023/05/04 03:49:13;;;;;;;0.50;0.50;;;2.60;99.90;;;;;;5048870;28;20705;-82
2023/05/04 03:51:38;;;;;;;0.40;0.40;;;2.60;99.90;;;;;;5035374;28;20179;-82
2023/05/04 03:54:04;;;;;;;0.40;0.40;;;2.60;99.90;;;;;;5033656;28;20441;-82
2023/05/04 03:56:30;;;;;;;0.40;0.40;;;2.70;99.90;;;;;;5031321;28;20698;-84
2023/05/04 03:58:56;;;;;;;0.40;0.40;;;2.70;99.90;;;;;;5049128;28;20604;-83
2023/05/04 04:01:21;;;;;;;0.40;0.40;;;2.80;99.90;;;;;;5034165;28;20196;-83
2023/05/04 04:03:47;;;;;;;0.40;0.40;;;2.80;99.90;;;;;;5033487;28;20203;-83
2023/05/04 04:06:12;;;;;;;0.30;0.30;;;2.90;99.90;;;;;;5034421;28;20555;-82
2023/05/04 04:08:38;;;;;;;0.40;0.40;;;2.70;99.90;;;;;;5033544;28;20222;-82
2023/05/04 04:11:03;;;;;;;0.50;0.50;;;2.70;99.90;;;;;;5034739;28;20202;-84
2023/05/04 04:13:29;;;;;;;0.43;0.43;;;2.80;99.90;;;;;;5040329;28;20179;-83
2023/05/04 04:15:55;;;;;;;0.40;0.40;;;2.80;99.90;;;;;;5035801;28;20281;-83
2023/05/04 04:18:22;;;;;;;0.40;0.40;;;2.90;99.90;;;;;;5032260;28;20192;-83
2023/05/04 04:20:47;;;;;;;0.40;0.40;;;3.10;99.90;;;;;;5032854;28;20191;-83
2023/05/04 04:23:13;;;;;;;0.40;0.40;;;3.30;99.90;;;;;;5032092;28;20449;-82
2023/05/04 04:25:38;;;;;;;0.40;0.40;;;3.40;99.90;;;;;;5036625;28;20191;-82
2023/05/04 04:28:04;;;;;;;0.40;0.40;;;3.40;99.90;;;;;;5045531;28;20183;-83
2023/05/04 04:30:29;;;;;;;0.50;0.50;;;3.40;99.90;;;;;;5036255;28;20236;-83
2023/05/04 04:32:56;;;;;;;0.40;0.40;;;3.30;99.90;;;;;;5028663;28;20558;-83
2023/05/04 04:35:22;;;;;;;0.40;0.40;;;3.30;99.90;;;;;;5044291;28;20205;-82
2023/05/04 04:37:47;;;;;;;0.30;0.30;;;3.30;99.90;;;;;;5042101;28;20449;-82
2023/05/04 04:40:13;;;;;;;0.40;0.40;;;3.40;99.90;;;;;;5030320;28;20500;-83
2023/05/04 04:42:38;;;;;;;0.40;0.40;;;3.40;99.90;;;;;;5042093;28;20230;-83
2023/05/04 04:45:05;;;;;;;0.40;0.40;;;3.50;99.90;;;;;;5045716;28;20948;-82
2023/05/04 04:47:33;;;;;;;0.30;0.30;;;3.40;99.90;;;;;;5044423;28;20542;-82
2023/05/04 04:49:59;;;;;;;0.30;0.30;;;3.40;99.90;;;;;;5045547;28;20527;-83
2023/05/04 04:52:25;;;;;;;0.40;0.40;;;3.40;99.90;;;;;;5045795;28;20473;-82
2023/05/04 04:54:50;;;;;;;0.40;0.40;;;3.50;99.90;;;;;;5047855;28;20718;-82
2023/05/04 04:57:16;;;;;;;0.30;0.30;;;3.60;99.90;;;;;;5047045;28;20183;-83
2023/05/04 04:59:42;;;;;;;0.40;0.40;;;3.50;99.90;;;;;;5045336;28;20260;-83
2023/05/04 05:02:08;;;;;;;0.40;0.40;;;3.50;99.90;;;;;;5034699;28;20548;-82
2023/05/04 05:04:34;;;;;;;0.40;0.40;;;3.50;99.90;;;;;;5033330;28;20195;-83
2023/05/04 05:07:00;;;;;;;0.40;0.40;;;3.50;99.90;;;;;;5048153;28;20444;-83
2023/05/04 05:09:25;;;;;;;0.30;0.30;;;3.60;99.90;;;;;;5047507;28;20485;-82
2023/05/04 05:11:51;;;;;;;0.40;0.40;;;3.60;99.90;;;;;;5039068;28;20663;-83
2023/05/04 05:14:16;;;;;;;0.40;0.40;;;3.60;99.90;;;;;;5035569;28;20637;-83
2023/05/04 05:16:42;;;;;;;0.40;0.40;;;3.70;99.90;;;;;;5040580;28;20673;-83
2023/05/04 05:19:07;;;;;;;0.40;0.40;;;3.80;99.90;;;;;;5069034;28;20265;-83
2023/05/04 05:21:33;;;;;;;0.40;0.40;;;4.00;99.90;;;;;;5030198;28;20222;-83
2023/05/04 05:23:58;;;;;;;0.40;0.40;;;4.20;99.90;;;;;;5041737;28;20183;-83
2023/05/04 05:26:24;;;;;;;0.40;0.40;;;4.30;99.90;;;;;;5046069;28;20198;-83
2023/05/04 05:28:49;;;;;;;0.40;0.40;;;4.50;99.90;;;;;;5031069;28;20899;-83
2023/05/04 05:31:15;;;;;;;0.30;0.30;;;4.60;99.90;;;;;;5041638;28;20767;-83
2023/05/04 05:33:41;;;;;;;0.30;0.30;;;4.80;99.90;;;;;;5039574;28;20221;-82
2023/05/04 05:36:06;;;;;;;0.40;0.40;;;4.80;99.90;;;;;;5045443;28;20697;-84
2023/05/04 05:38:32;;;;;;;0.37;0.37;;;5.00;99.90;;;;;;5048557;28;20221;-85
2023/05/04 05:40:57;;;;;;;0.40;0.40;;;5.10;99.90;;;;;;5034710;28;20216;-84
2023/05/04 05:43:23;;;;;;;0.40;0.40;;;5.20;99.90;;;;;;5044073;28;20261;-84
2023/05/04 05:45:49;;;;;;;0.30;0.30;;;5.30;99.90;;;;;;5035847;28;20329;-85
2023/05/04 05:48:15;;;;;;;0.30;0.30;;;5.30;99.90;;;;;;5034644;28;20960;-85
2023/05/04 05:50:40;;;;;;;0.30;0.30;;;5.40;99.90;;;;;;5039923;28;20195;-84
2023/05/04 05:53:06;;;;;;;0.30;0.30;;;5.60;99.90;;;;;;5035209;28;20190;-85
2023/05/04 05:55:32;;;;;;;0.30;0.30;;;5.70;99.90;;;;;;5045467;28;20191;-84
2023/05/04 05:57:57;;;;;;;0.30;0.30;;;5.90;99.90;;;;;;5042121;28;20188;-83
2023/05/04 06:00:23;;;;;;;0.20;0.20;;;6.00;99.90;;;;;;5035861;28;20226;-84
2023/05/04 06:02:50;;;;;;;0.30;0.30;;;6.00;99.90;;;;;;5040745;28;20263;-85
2023/05/04 06:05:15;;;;;;;0.30;0.30;;;6.20;99.90;;;;;;5055126;28;20445;-84
2023/05/04 06:07:41;;;;;;;0.30;0.30;;;6.40;99.90;;;;;;5036956;28;20503;-84
2023/05/04 06:10:08;;;;;;;0.30;0.30;;;6.60;99.90;;;;;;5038194;28;20223;-83
2023/05/04 06:12:34;;;;;;;0.20;0.20;;;6.80;99.90;;;;;;5035107;28;20229;-83
2023/05/04 06:14:59;;;;;;;0.30;0.30;;;7.00;99.90;;;;;;5033718;28;20449;-84
2023/05/04 06:17:25;;;;;;;0.30;0.30;;;7.30;99.90;;;;;;5034621;28;20183;-84
2023/05/04 06:19:50;;;;;;;0.30;0.30;;;7.40;99.90;;;;;;5036354;28;20201;-84
2023/05/04 06:22:16;;;;;;;0.30;0.30;;;7.70;99.90;;;;;;5037656;28;20772;-83
2023/05/04 06:24:41;;;;;;;0.20;0.20;;;7.80;99.90;;;;;;5041833;28;20214;-82
2023/05/04 06:27:07;;;;;;;0.20;0.20;;;7.90;99.90;;;;;;5037041;28;20190;-82
2023/05/04 06:29:33;;;;;;;0.30;0.30;;;8.20;99.90;;;;;;5039475;28;20218;-81
2023/05/04 06:31:59;;;;;;;0.20;0.20;;;8.30;99.90;;;;;;5032733;28;20197;-80
2023/05/04 06:34:24;;;;;;;0.20;0.20;;;8.60;99.90;;;;;;5032822;28;20190;-83
2023/05/04 06:36:50;;;;;;;0.20;0.20;;;8.70;99.90;;;;;;5043420;28;20450;-81
2023/05/04 06:39:15;;;;;;;0.20;0.20;;;8.80;99.90;;;;;;5048714;28;20657;-84
2023/05/04 06:41:41;;;;;;;0.20;0.20;;;9.00;99.90;;;;;;5051903;28;20228;-86
2023/05/04 06:44:07;;;;;;;0.20;0.20;;;9.20;99.90;;;;;;5047978;28;20193;-85
2023/05/04 06:46:34;;;;;;;0.20;0.20;;;9.30;99.90;;;;;;5035092;28;20199;-83
2023/05/04 06:48:59;;;;;;;0.20;0.20;;;9.40;99.90;;;;;;5036023;28;20493;-85
2023/05/04 06:51:25;;;;;;;0.20;0.20;;;9.70;99.90;;;;;;5032632;28;20447;-85
2023/05/04 06:53:50;;;;;;;0.20;0.20;;;9.70;99.90;;;;;;5038381;28;20647;-83
2023/05/04 06:56:16;;;;;;;0.20;0.20;;;9.90;99.90;;;;;;5032365;28;20183;-84
2023/05/04 06:58:41;;;;;;;0.20;0.20;;;10.20;99.90;;;;;;5042673;28;20198;-83
2023/05/04 07:01:10;;;;;;;0.20;0.20;;;10.10;99.90;;;;;;5041522;28;20211;-83
2023/05/04 07:03:36;;;;;;;0.20;0.20;;;10.20;99.90;;;;;;5043984;28;20520;-83
2023/05/04 07:06:02;;;;;;;0.20;0.20;;;10.30;99.90;;;;;;5046554;28;20960;-84
2023/05/04 07:08:28;;;;;;;0.20;0.20;;;10.20;99.90;;;;;;5043334;28;20445;-83
2023/05/04 07:10:53;;;;;;;0.10;0.10;;;10.30;99.90;;;;;;5043163;28;20441;-84
2023/05/04 07:13:19;;;;;;;0.10;0.10;;;10.50;99.90;;;;;;5034706;28;20228;-85
2023/05/04 07:15:44;;;;;;;0.10;0.10;;;10.50;99.90;;;;;;5040931;28;20198;-85
2023/05/04 07:18:10;;;;;;;0.10;0.10;;;10.60;99.90;;;;;;5039659;28;20191;-84
2023/05/04 07:20:35;;;;;;;0.10;0.10;;;10.60;99.90;;;;;;5041321;28;20194;-84
2023/05/04 07:23:01;;;;;;;0.10;0.10;;;10.70;99.90;;;;;;5041023;28;20182;-85
2023/05/04 07:25:27;;;;;;;0.10;0.10;;;10.80;99.90;;;;;;5042728;28;20190;-85
2023/05/04 07:27:53;;;;;;;0.10;0.10;;;10.80;99.90;;;;;;5042452;28;20190;-84
2023/05/04 07:30:19;;;;;;;0.10;0.10;;;11.00;99.90;;;;;;5040619;28;20476;-86
2023/05/04 07:32:45;;;;;;;0.10;0.10;;;11.30;99.90;;;;;;5042367;28;20187;-85
2023/05/04 07:35:11;;;;;;;0.10;0.10;;;11.30;99.90;;;;;;5037492;28;20469;-86
2023/05/04 07:37:36;;;;;;;0.10;0.10;;;11.40;99.90;;;;;;5036226;28;20187;-83
2023/05/04 07:40:04;;;;;;;0.10;0.10;;;11.60;99.90;;;;;;5048753;28;20218;-84
2023/05/04 07:42:33;;;;;;;0.10;0.10;;;11.60;99.90;;;;;;5047831;28;20222;-84
2023/05/04 07:44:59;;;;;;;0.10;0.10;;;11.80;99.90;;;;;;5040743;28;20447;-83
2023/05/04 07:47:25;;;;;;;0.10;0.10;;;11.70;99.90;;;;;;5037049;28;20434;-84
2023/05/04 07:49:50;;;;;;;0.10;0.10;;;11.40;99.90;;;;;;5045456;28;20226;-84
2023/05/04 07:52:16;;;;;;;0.10;0.10;;;11.50;99.90;;;;;;5044014;28;20445;-84
2023/05/04 07:54:41;;;;;;;0.10;0.10;;;11.60;99.90;;;;;;5041178;28;20741;-84
2023/05/04 07:57:07;;;;;;;0.10;0.10;;;11.50;99.90;;;;;;5028081;28;20260;-83
2023/05/04 07:59:32;;;;;;;0.10;0.10;;;11.50;99.90;;;;;;5029683;28;20661;-85
2023/05/04 08:01:58;;;;;;;0.10;0.10;;;11.80;99.90;;;;;;5049652;28;20675;-84
2023/05/04 08:04:24;;;;;;;0.10;0.10;;;12.00;99.90;;;;;;5039652;28;20197;-85
2023/05/04 08:06:50;;;;;;;0.10;0.10;;;11.60;99.90;;;;;;5043053;28;20516;-84
2023/05/04 08:09:15;;;;;;;0.10;0.10;;;11.50;99.90;;;;;;5037925;28;20211;-85
2023/05/04 08:11:41;;;;;;;0.10;0.10;;;11.60;99.90;;;;;;5038811;28;20240;-84
2023/05/04 08:14:07;;;;;;;0.10;0.10;;;11.60;99.90;;;;;;5036419;28;20547;-84
2023/05/04 08:16:33;;;;;;;0.10;0.10;;;12.00;99.90;;;;;;5037500;28;21029;-84
2023/05/04 08:19:00;;;;;;;0.10;0.10;;;12.10;99.90;;;;;;5030535;28;20452;-84
2023/05/04 08:21:26;;;;;;;0.10;0.10;;;12.30;99.90;;;;;;5033103;28;20187;-83
2023/05/04 08:23:51;;;;;;;0.10;0.10;;;12.50;99.90;;;;;;5036118;28;20435;-85
2023/05/04 08:26:18;;;;;;;0.10;0.10;;;12.50;99.90;;;;;;5041455;28;20449;-85
2023/05/04 08:28:45;;;;;;;0.10;0.10;;;12.30;99.90;;;;;;5048631;28;20740;-85
2023/05/04 08:31:11;;;;;;;0.10;0.10;;;12.10;99.90;;;;;;5054800;28;20450;-85
2023/05/04 08:33:36;;;;;;;0.10;0.10;;;12.20;99.90;;;;;;5039828;28;20437;-83
2023/05/04 08:36:06;;;;;;;0.10;0.10;;;12.30;99.90;;;;;;5035534;28;20450;-83
2023/05/04 08:38:32;;;;;;;0.10;0.10;;;12.20;99.90;;;;;;5033529;28;20183;-82
2023/05/04 08:41:03;;;;;;;0.10;0.10;;;12.40;99.90;;;;;;5034025;28;20448;-83
2023/05/04 08:43:29;;;;;;;0.00;0.00;;;12.50;99.90;;;;;;5032960;28;20227;-83
2023/05/04 08:45:55;;;;;;;0.10;0.10;;;12.60;99.90;;;;;;5037628;28;20519;-84
2023/05/04 08:48:21;;;;;;;0.10;0.10;;;13.00;99.90;;;;;;5041971;28;21008;-84
2023/05/04 08:50:47;;;;;;;0.10;0.10;;;13.00;99.90;;;;;;5042752;28;20449;-84
2023/05/04 08:53:14;;;;;;;0.10;0.10;;;12.80;99.90;;;;;;5043448;28;20187;-83
2023/05/04 08:55:41;;;;;;;0.00;0.00;;;13.00;99.90;;;;;;5046909;28;20266;-82
2023/05/04 08:58:11;;;;;;;0.00;0.00;;;13.20;99.90;;;;;;5047960;28;20579;-83
2023/05/04 09:00:38;;;;;;;0.00;0.00;;;13.60;99.90;;;;;;5052068;28;21192;-85
2023/05/04 09:03:09;;;;;;;0.10;0.10;;;13.90;99.90;;;;;;5038608;28;20658;-84
2023/05/04 09:05:35;;;;;;;0.03;0.03;;;13.50;99.90;;;;;;5045100;28;20446;-84
2023/05/04 09:08:01;;;;;;;0.03;0.03;;;14.20;99.90;;;;;;5052490;28;20901;-83
2023/05/04 09:10:26;;;;;;;0.03;0.03;;;14.70;99.90;;;;;;5044119;28;20488;-84
2023/05/04 09:12:54;;;;;;;0.00;0.00;;;15.10;99.90;;;;;;5046426;28;20194;-82
2023/05/04 09:15:20;;;;;;;0.00;0.00;;;14.90;99.90;;;;;;5047996;28;20186;-83
2023/05/04 09:17:57;;;;;;;0.00;0.00;;;14.80;99.90;;;;;;5034901;28;20496;-82
2023/05/04 09:20:24;;;;;;;0.00;0.00;;;;;;;;;;5041154;28;20444;-81
2023/05/04 09:23:01;;;;;;;0.00;0.00;;;15.50;99.90;;;;;;5045467;28;20453;-82
2023/05/04 09:25:26;;;;;;;0.00;0.00;;;15.60;99.90;;;;;;5032573;28;20871;-84
2023/05/04 09:27:55;;;;;;;0.00;0.00;;;15.20;99.90;;;;;;5035559;28;20549;-82
2023/05/04 09:30:21;;;;;;;0.00;0.00;;;15.10;99.90;;;;;;5038159;28;20211;-83
2023/05/04 09:32:48;;;;;;;0.00;0.00;;;15.30;99.90;;;;;;5036152;28;20500;-83
2023/05/04 09:35:16;;;;;;;0.00;0.00;;;15.10;99.90;;;;;;5054586;28;20712;-83
2023/05/04 09:37:44;;;;;;;0.00;0.00;;;15.10;99.90;;;;;;5046056;28;21135;-82
2023/05/04 09:40:10;;;;;;;0.00;0.00;;;15.50;99.90;;;;;;5035167;28;20481;-82
2023/05/04 09:42:36;;;;;;;0.00;0.00;;;15.90;99.90;;;;;;5040352;28;20485;-82
2023/05/04 09:45:04;;;;;;;0.00;0.00;;;15.60;99.90;;;;;;5044300;28;20449;-82
2023/05/04 09:47:36;;;;;;;0.00;0.00;;;15.70;99.90;;;;;;5043854;28;20185;-82
2023/05/04 09:50:15;;;;;;;0.00;0.00;;;15.90;99.90;;;;;;5041106;28;20478;-82
2023/05/04 09:52:42;;;;;;;0.00;0.00;;;15.80;99.90;;;;;;5050980;28;20421;-82
2023/05/04 09:55:12;;;;;;;0.00;0.00;;;15.70;99.90;;;;;;5046623;28;20447;-83
2023/05/04 09:57:39;;;;;;;0.00;0.00;;;16.20;99.90;;;;;;5048013;28;20909;-82
2023/05/04 10:00:05;;;;;;;0.00;0.00;;;16.30;99.90;;;;;;5032369;28;20450;-85
2023/05/04 10:02:31;;;;;;;0.00;0.00;;;16.70;99.90;;;;;;5043028;28;20441;-86
2023/05/04 10:04:57;;;;;;;0.00;0.00;;;16.00;99.90;;;;;;5047064;28;20453;-86
2023/05/04 10:07:23;;;;;;;0.00;0.00;;;15.50;99.90;;;;;;5039065;28;20210;-84
2023/05/04 10:09:50;;;;;;;0.00;0.00;;;15.40;99.90;;;;;;5034624;28;20523;-84
2023/05/04 10:12:15;;;;;;;0.00;0.00;;;15.80;99.90;;;;;;5045211;28;20442;-85
2023/05/04 10:14:45;;;;;;;0.00;0.00;;;16.10;99.90;;;;;;5040752;28;21231;-86
2023/05/04 10:17:20;;;;;;;0.00;0.00;;;16.10;99.90;;;;;;5033833;28;20195;-84
2023/05/04 10:19:48;;;;;;;0.00;0.00;;;16.30;99.90;;;;;;5055235;28;20462;-86
2023/05/04 10:22:32;;;;;;;0.00;0.00;;;16.20;99.90;;;;;;5033441;28;20470;-85
2023/05/04 10:25:21;;;;;;;0.00;0.00;;;15.90;99.90;;;;;;5051233;28;20843;-86
2023/05/04 10:28:11;;;;;;;0.00;0.00;;;15.90;99.90;;;;;;5044387;28;20452;-85
2023/05/04 10:30:38;;;;;;;0.00;0.00;;;16.20;99.90;;;;;;5041915;28;20570;-85
2023/05/04 10:33:05;;;;;;;0.00;0.00;;;;;;;;;;5030995;28;20445;-84
2023/05/04 10:35:31;;;;;;;0.00;0.00;;;17.20;99.90;;;;;;5047834;28;20897;-86
2023/05/04 10:37:57;;;;;;;0.00;0.00;;;;;;;;;;5052377;28;20446;-85
2023/05/04 10:40:36;;;;;;;0.00;0.00;;;17.40;99.90;;;;;;5037264;28;20446;-85
2023/05/04 10:43:01;;;;;;;0.00;0.00;;;17.80;99.90;;;;;;5033560;28;20914;-84
2023/05/04 10:45:40;;;;;;;0.00;0.00;;;17.60;99.90;;;;;;5045646;28;20523;-85
2023/05/04 10:48:07;;;;;;;0.00;0.00;;;17.80;99.90;;;;;;5029821;28;20589;-84
2023/05/04 10:50:42;;;;;;;0.00;0.00;;;17.70;99.90;;;;;;5038934;28;20482;-84
2023/05/04 10:53:08;;;;;;;0.00;0.00;;;17.70;99.90;;;;;;5041468;28;20440;-84
2023/05/04 10:55:47;;;;;;;0.00;0.00;;;17.80;99.90;;;;;;5033202;28;20509;-84
2023/05/04 10:58:15;;;;;;;0.00;0.00;;;18.10;99.90;;;;;;5030139;28;20278;-84
2023/05/04 11:00:43;;;;;;;0.00;0.00;;;;;;;;;;5044879;28;20452;-86
2023/05/04 11:03:10;;;;;;;0.00;0.00;;;;;;;;;;5035200;28;20426;-85
2023/05/04 11:05:44;;;;;;;0.00;0.00;;;19.00;99.90;;;;;;5037702;28;20844;-85
2023/05/04 11:08:15;;;;;;;0.00;0.00;;;18.70;99.20;;;;;;5041679;28;20442;-85
2023/05/04 11:10:40;;;;;;;0.00;0.00;;;18.40;99.90;;;;;;5045381;28;20495;-85
2023/05/04 11:13:10;;;;;;;0.00;0.00;;;18.80;99.90;;;;;;5031746;28;20727;-85
2023/05/04 11:15:47;;;;;;;0.00;0.00;;;19.10;98.90;;;;;;5038904;28;20234;-86
2023/05/04 11:18:13;;;;;;;0.00;0.00;;;19.60;99.90;;;;;;5033076;28;20469;-86
2023/05/04 11:20:39;;;;;;;0.00;0.00;;;19.40;97.20;;;;;;5037333;28;20480;-85
2023/05/04 11:23:08;;;;;;;0.00;0.00;;;19.40;98.50;;;;;;5053086;28;20451;-86
2023/05/04 11:25:36;;;;;;;0.00;0.00;;;19.50;98.40;;;;;;5044613;28;20448;-86
2023/05/04 11:28:02;;;;;;;0.00;0.00;;;19.60;98.60;;;;;;5042324;28;20488;-86
2023/05/04 11:30:33;;;;;;;0.00;0.00;;;19.80;97.70;;;;;;5041544;28;20512;-85
2023/05/04 11:32:59;;;;;;;0.00;0.00;;;19.80;98.00;;;;;;5038576;28;20191;-86
2023/05/04 11:35:25;;;;;;;0.00;0.00;;;20.10;97.30;;;;;;5031227;28;20450;-87
2023/05/04 11:37:51;;;;;;;0.00;0.00;;;20.70;96.80;;;;;;5032928;28;20516;-84
2023/05/04 11:40:25;;;;;;;0.00;0.00;;;20.20;97.10;;;;;;5035768;28;20924;-85
2023/05/04 11:42:52;;;;;;;0.10;0.00;;;20.50;96.90;;;;;;5034558;28;20494;-86
2023/05/04 11:45:20;;;;;;;0.10;0.00;;;20.00;95.80;;;;;;5044170;28;20987;-86
2023/05/04 11:47:47;;;;;;;0.10;0.00;;;19.50;96.10;;;;;;5036865;28;20477;-85
2023/05/04 11:50:14;;;;;;;0.10;0.00;;;19.40;97.10;;;;;;5047955;28;20823;-86
2023/05/04 11:52:41;;;;;;;0.10;0.00;;;19.30;96.80;;;;;;5048297;28;20442;-86
2023/05/04 11:55:26;;;;;;;0.10;0.00;;;19.00;96.60;;;;;;5035708;28;20442;-85
2023/05/04 11:58:05;;;;;;;0.10;0.00;;;19.30;97.10;;;;;;5037055;28;20487;-83
2023/05/04 12:00:38;;;;;;;0.00;0.00;;;19.50;97.10;;;;;;5041435;28;20440;-84
2023/05/04 12:03:07;;;;;;;0.00;0.00;;;19.40;97.60;;;;;;5043369;28;20449;-84
2023/05/04 12:05:34;;;;;;;0.00;0.00;;;18.50;96.90;;;;;;5048192;28;21016;-84
2023/05/04 12:08:02;;;;;;;0.00;0.00;;;18.10;97.00;;;;;;5044591;28;20502;-84
2023/05/04 12:10:28;;;;;;;0.00;0.00;;;18.50;98.50;;;;;;5051320;28;20487;-84
2023/05/04 12:12:54;;;;;;;0.00;0.00;;;18.40;99.10;;;;;;5048316;28;20520;-84
2023/05/04 12:15:28;;;;;;;0.00;0.00;;;18.30;96.40;;;;;;5035903;28;20569;-84
2023/05/04 12:17:53;;;;;;;0.00;0.00;;;18.40;97.40;;;;;;5049171;28;20191;-84
2023/05/04 12:20:27;;;;;;;0.00;0.00;;;18.40;97.40;;;;;;5040457;28;20973;-84
2023/05/04 12:22:54;;;;;;;0.00;0.00;;;18.00;96.30;;;;;;5032121;28;20326;-83
2023/05/04 12:25:20;;;;;;;0.00;0.00;;;17.90;96.40;;;;;;5044765;28;20449;-84
2023/05/04 12:27:46;;;;;;;0.00;0.00;;;17.80;96.70;;;;;;5040374;28;20449;-84
2023/05/04 12:30:12;;;;;;;0.10;0.00;;;18.20;96.80;;;;;;5033881;28;20568;-83
2023/05/04 12:32:37;;;;;;;0.10;0.00;;;18.50;97.30;;;;;;5035504;28;20190;-83
2023/05/04 12:35:03;;;;;;;0.10;0.00;;;18.20;95.80;;;;;;5041926;28;20444;-84
2023/05/04 12:37:30;;;;;;;0.10;0.00;;;18.10;96.60;;;;;;5043716;28;20199;-84
2023/05/04 12:39:55;;;;;;;0.10;0.10;;;18.10;97.30;;;;;;5049290;28;20195;-84
2023/05/04 12:42:21;;;;;;;0.10;0.00;;;17.90;97.90;;;;;;5036033;28;20484;-83
2023/05/04 12:44:46;;;;;;;0.10;0.00;;;17.40;98.10;;;;;;5034726;28;20218;-83
2023/05/04 12:47:13;;;;;;;0.00;0.00;;;17.30;97.60;;;;;;5034097;28;20345;-86
2023/05/04 12:49:38;;;;;;;0.00;0.00;;;17.10;98.10;;;;;;5033304;28;20580;-84
2023/05/04 12:52:04;;;;;;;0.00;0.00;;;17.00;98.50;;;;;;5038262;28;20459;-83
2023/05/04 12:54:30;;;;;;;0.00;0.00;;;;;;;;;;5032519;28;20194;-84